createdAt,value
2022-09-17T00:01:43.810Z,99766.91
2022-09-17T00:04:12.579Z,99776.16
2022-09-17T00:06:41.294Z,99762.31
2022-09-17T00:09:11.657Z,99755.00
2022-09-17T00:11:42.414Z,99761.94
2022-09-17T00:14:15.877Z,99769.38
2022-09-17T00:16:46.728Z,99776.84
2022-09-17T00:19:17.582Z,99777.81
2022-09-17T00:21:46.554Z,99772.84
2022-09-17T00:24:17.451Z,99765.59
2022-09-17T00:26:46.074Z,99768.16
2022-09-17T00:29:14.531Z,99775.78
2022-09-17T00:31:43.989Z,99760.69
2022-09-17T00:34:12.632Z,99777.56
2022-09-17T00:36:41.227Z,99765.06
2022-09-17T00:39:11.559Z,99764.13
2022-09-17T00:41:41.518Z,99768.47
2022-09-17T00:44:43.572Z,99762.88
2022-09-17T00:47:28.413Z,99753.97
2022-09-17T00:50:01.377Z,99764.00
2022-09-17T00:52:34.760Z,99763.63
2022-09-17T00:55:11.119Z,99762.44
2022-09-17T00:57:41.871Z,99757.25
2022-09-17T01:00:11.953Z,99745.06
2022-09-17T01:02:41.154Z,99746.97
2022-09-17T01:05:11.375Z,99739.19
2022-09-17T01:08:02.938Z,99743.44
2022-09-17T01:10:58.536Z,99729.94
2022-09-17T01:13:43.259Z,99740.72
2022-09-17T01:16:19.725Z,99727.91
2022-09-17T01:19:04.374Z,99724.88
2022-09-17T01:21:40.421Z,99725.56
2022-09-17T01:24:48.618Z,99727.34
2022-09-17T01:27:45.760Z,99733.66
2022-09-17T01:30:23.116Z,99734.25
2022-09-17T01:32:57.273Z,99733.22
2022-09-17T01:35:36.116Z,99715.59
2022-09-17T01:38:13.306Z,99721.13
2022-09-17T01:40:51.071Z,99726.91
2022-09-17T01:43:26.015Z,99725.97
2022-09-17T01:45:58.924Z,99728.94
2022-09-17T01:48:33.336Z,99727.06
2022-09-17T01:51:08.071Z,99734.31
2022-09-17T01:53:42.812Z,99732.72
2022-09-17T01:56:14.705Z,99732.47
2022-09-17T01:58:47.322Z,99735.41
2022-09-17T02:01:20.008Z,99731.16
2022-09-17T02:03:56.226Z,99740.38
2022-09-17T02:06:30.001Z,99730.44
2022-09-17T02:09:03.037Z,99735.06
2022-09-17T02:11:34.014Z,99720.66
2022-09-17T02:14:07.423Z,99732.81
2022-09-17T02:16:38.396Z,99715.06
2022-09-17T02:19:15.622Z,99726.97
2022-09-17T02:21:48.422Z,99723.72
2022-09-17T02:24:21.185Z,99722.91
2022-09-17T02:26:56.264Z,99704.84
2022-09-17T02:29:30.981Z,99735.03
2022-09-17T02:31:59.705Z,99737.44
2022-09-17T02:34:30.827Z,99732.53
2022-09-17T02:37:00.478Z,99728.41
2022-09-17T02:39:29.685Z,99734.53
2022-09-17T02:42:06.653Z,99741.00
2022-09-17T02:44:46.262Z,99739.72
2022-09-17T02:47:56.788Z,99737.06
2022-09-17T02:50:39.279Z,99730.88
2022-09-17T02:53:21.053Z,99738.94
2022-09-17T02:56:01.213Z,99738.88
2022-09-17T02:58:35.446Z,99733.56
2022-09-17T03:01:14.015Z,99722.22
2022-09-17T03:03:45.687Z,99729.72
2022-09-17T03:06:15.678Z,99725.00
2022-09-17T03:08:45.128Z,99708.09
2022-09-17T03:11:14.189Z,99717.56
2022-09-17T03:13:42.754Z,99734.78
2022-09-17T03:16:11.356Z,99720.78
2022-09-17T03:18:39.858Z,99720.72
2022-09-17T03:21:08.276Z,99724.78
2022-09-17T03:23:38.285Z,99723.38
2022-09-17T03:26:06.970Z,99711.28
2022-09-17T03:28:35.439Z,99706.19
2022-09-17T03:31:04.400Z,99706.25
2022-09-17T03:33:32.955Z,99704.84
2022-09-17T03:36:01.488Z,99704.84
2022-09-17T03:38:29.955Z,99705.84
2022-09-17T03:41:00.844Z,99709.31
2022-09-17T03:43:30.014Z,99695.78
2022-09-17T03:45:58.452Z,99705.78
2022-09-17T03:48:27.302Z,99712.00
2022-09-17T03:50:55.710Z,99717.66
2022-09-17T03:53:24.763Z,99710.75
2022-09-17T03:55:53.211Z,99707.94
2022-09-17T03:58:23.955Z,99705.81
2022-09-17T04:04:02.798Z,99692.63
2022-09-17T04:06:31.634Z,99697.13
2022-09-17T04:09:01.046Z,99697.47
2022-09-17T04:11:30.113Z,99692.16
2022-09-17T04:14:00.038Z,99696.09
2022-09-17T04:16:28.567Z,99692.94
2022-09-17T04:18:57.141Z,99688.97
2022-09-17T04:21:25.641Z,99691.41
2022-09-17T04:23:54.056Z,99676.06
2022-09-17T04:26:22.562Z,99677.81
2022-09-17T04:28:50.977Z,99681.94
2022-09-17T04:31:22.774Z,99681.50
2022-09-17T04:33:51.276Z,99684.94
2022-09-17T04:36:19.768Z,99674.63
2022-09-17T04:38:50.034Z,99686.66
2022-09-17T04:41:18.489Z,99686.94
2022-09-17T04:43:47.084Z,99689.59
2022-09-17T04:46:17.011Z,99688.00
2022-09-17T04:48:47.576Z,99684.03
2022-09-17T04:51:16.037Z,99673.84
2022-09-17T04:53:45.746Z,99678.16
2022-09-17T04:56:14.199Z,99685.19
2022-09-17T04:58:42.698Z,99683.69
2022-09-17T05:01:11.236Z,99680.53
2022-09-17T05:03:39.724Z,99678.97
2022-09-17T05:06:09.651Z,99677.03
2022-09-17T05:08:38.217Z,99693.56
2022-09-17T05:11:06.834Z,99692.59
2022-09-17T05:13:35.254Z,99689.31
2022-09-17T05:16:04.241Z,99692.25
2022-09-17T05:18:32.735Z,99690.94
2022-09-17T05:21:01.170Z,99695.19
2022-09-17T05:23:31.369Z,99698.81
2022-09-17T05:26:00.552Z,99691.97
2022-09-17T05:28:29.578Z,99683.97
2022-09-17T05:31:00.748Z,99689.13
2022-09-17T05:33:29.437Z,99694.59
2022-09-17T05:35:58.044Z,99699.91
2022-09-17T05:38:26.974Z,99689.03
2022-09-17T05:40:56.834Z,99699.78
2022-09-17T05:43:25.379Z,99690.53
2022-09-17T05:45:54.809Z,99695.50
2022-09-17T05:48:23.247Z,99700.00
2022-09-17T05:50:51.710Z,99696.72
2022-09-17T05:53:20.589Z,99706.63
2022-09-17T05:55:49.472Z,99701.00
2022-09-17T05:58:20.907Z,99703.59
2022-09-17T06:00:49.476Z,99702.31
2022-09-17T06:03:20.072Z,99710.84
2022-09-17T06:05:55.709Z,99700.06
2022-09-17T06:08:24.500Z,99720.09
2022-09-17T06:10:52.954Z,99714.00
2022-09-17T06:13:23.056Z,99704.69
2022-09-17T06:15:52.471Z,99717.78
2022-09-17T06:18:21.533Z,99711.94
2022-09-17T06:20:56.374Z,99706.44
2022-09-17T06:23:25.361Z,99708.47
2022-09-17T06:25:55.999Z,99713.59
2022-09-17T06:28:26.659Z,99694.41
2022-09-17T06:30:57.396Z,99713.75
2022-09-17T06:33:26.931Z,99716.41
2022-09-17T06:36:00.398Z,99707.81
2022-09-17T06:38:29.453Z,99719.78
2022-09-17T06:40:58.134Z,99724.66
2022-09-17T06:43:28.426Z,99717.88
2022-09-17T06:45:58.030Z,99716.91
2022-09-17T06:48:27.511Z,99711.13
2022-09-17T06:50:57.019Z,99705.00
2022-09-17T06:53:26.340Z,99709.16
2022-09-17T06:56:01.244Z,99681.56
2022-09-17T06:58:33.919Z,99711.56
2022-09-17T07:01:03.098Z,99701.38
2022-09-17T07:03:32.829Z,99701.50
2022-09-17T07:06:01.361Z,99705.63
2022-09-17T07:08:30.060Z,99703.28
2022-09-17T07:10:59.117Z,99706.88
2022-09-17T07:13:28.193Z,99714.78
2022-09-17T07:15:59.312Z,99704.28
2022-09-17T07:18:28.522Z,99712.88
2022-09-17T07:20:58.227Z,99695.06
2022-09-17T07:23:28.300Z,99700.25
2022-09-17T07:25:58.048Z,99696.81
2022-09-17T07:28:27.263Z,99694.59
2022-09-17T07:30:58.038Z,99704.41
2022-09-17T07:33:28.086Z,99692.94
2022-09-17T07:35:57.729Z,99695.03
2022-09-17T07:38:27.165Z,99691.50
2022-09-17T07:41:00.197Z,99688.75
2022-09-17T07:43:30.149Z,99687.06
2022-09-17T07:46:01.817Z,99696.13
2022-09-17T07:48:30.442Z,99693.34
2022-09-17T07:50:59.486Z,99688.53
2022-09-17T07:53:28.878Z,99700.41
2022-09-17T07:55:59.501Z,99701.22
2022-09-17T07:58:31.434Z,99706.50
2022-09-17T08:01:05.442Z,99701.84
2022-09-17T08:03:34.376Z,99696.66
2022-09-17T08:06:05.237Z,99699.97
2022-09-17T08:08:34.775Z,99711.38
2022-09-17T08:11:03.939Z,99699.19
2022-09-17T08:13:32.838Z,99677.06
2022-09-17T08:16:06.220Z,99702.56
2022-09-17T08:18:35.909Z,99705.69
2022-09-17T08:21:05.756Z,99703.03
2022-09-17T08:23:37.037Z,99705.13
2022-09-17T08:26:08.612Z,99700.66
2022-09-17T08:28:37.249Z,99703.84
2022-09-17T08:31:09.834Z,99710.69
2022-09-17T08:33:40.444Z,99704.31
2022-09-17T08:36:11.625Z,99705.09
2022-09-17T08:38:40.652Z,99699.28
2022-09-17T08:41:23.272Z,99715.59
2022-09-17T08:44:00.750Z,99714.09
2022-09-17T08:46:34.798Z,99697.56
2022-09-17T08:49:12.455Z,99709.16
2022-09-17T08:51:54.414Z,99705.50
2022-09-17T08:54:30.698Z,99705.63
2022-09-17T08:57:10.702Z,99709.34
2022-09-17T08:59:44.707Z,99709.28
2022-09-17T09:02:29.798Z,99705.09
2022-09-17T09:05:10.061Z,99715.66
2022-09-17T09:07:43.579Z,99708.78
2022-09-17T09:10:22.595Z,99704.19
2022-09-17T09:12:52.646Z,99713.84
2022-09-17T09:15:33.178Z,99722.59
2022-09-17T09:18:11.687Z,99716.19
2022-09-17T09:20:50.348Z,99713.06
2022-09-17T09:23:22.385Z,99707.09
2022-09-17T09:25:56.708Z,99710.53
2022-09-17T09:28:44.156Z,99708.69
2022-09-17T09:31:28.996Z,99705.34
2022-09-17T09:33:59.794Z,99706.22
2022-09-17T09:36:31.106Z,99699.47
2022-09-17T09:39:03.195Z,99722.94
2022-09-17T09:41:37.748Z,99707.63
2022-09-17T09:44:10.777Z,99711.59
2022-09-17T09:47:26.758Z,99702.34
2022-09-17T09:50:19.116Z,99709.84
2022-09-17T09:53:00.874Z,99707.66
2022-09-17T09:55:49.573Z,99704.59
2022-09-17T09:58:26.115Z,99692.41
2022-09-17T10:00:54.656Z,99698.25
2022-09-17T10:03:24.756Z,99690.06
2022-09-17T10:05:59.753Z,99691.03
2022-09-17T10:08:30.357Z,99690.69
2022-09-17T10:11:01.842Z,99686.59
2022-09-17T10:13:33.008Z,99674.06
2022-09-17T10:16:18.427Z,99674.25
2022-09-17T10:18:47.951Z,99682.38
2022-09-17T10:21:31.669Z,99683.38
2022-09-17T10:24:02.804Z,99678.22
2022-09-17T10:26:33.638Z,99674.91
2022-09-17T10:29:04.517Z,99678.22
2022-09-17T10:31:48.686Z,99676.44
2022-09-17T10:34:22.573Z,99667.63
2022-09-17T10:36:53.299Z,99665.47
2022-09-17T10:39:44.429Z,99673.66
2022-09-17T10:42:16.503Z,99662.94
2022-09-17T10:44:53.182Z,99674.88
2022-09-17T10:47:25.703Z,99659.25
2022-09-17T10:49:57.949Z,99661.38
2022-09-17T10:52:32.429Z,99659.47
2022-09-17T10:55:30.085Z,99658.75
2022-09-17T10:58:18.335Z,99649.19
2022-09-17T11:01:01.671Z,99641.00
2022-09-17T11:04:04.787Z,99642.19
2022-09-17T11:07:00.418Z,99632.13
2022-09-17T11:09:43.754Z,99633.38
2022-09-17T11:12:24.247Z,99632.50
2022-09-17T11:15:00.268Z,99624.81
2022-09-17T11:17:51.178Z,99628.31
2022-09-17T11:20:31.061Z,99618.25
2022-09-17T11:23:09.313Z,99617.66
2022-09-17T11:25:50.379Z,99612.19
2022-09-17T11:28:36.854Z,99608.22
2022-09-17T11:31:23.835Z,99612.81
2022-09-17T11:34:24.166Z,99608.00
2022-09-17T11:36:58.750Z,99589.97
2022-09-17T11:39:34.333Z,99583.09
2022-09-17T11:42:09.336Z,99589.50
2022-09-17T11:44:46.569Z,99588.91
2022-09-17T11:47:19.110Z,99583.47
2022-09-17T11:49:52.601Z,99594.31
2022-09-17T11:52:25.597Z,99591.88
2022-09-17T11:54:59.966Z,99589.34
2022-09-17T11:57:35.056Z,99551.19
2022-09-17T12:00:08.752Z,99575.13
2022-09-17T12:02:51.718Z,99578.59
2022-09-17T12:05:23.902Z,99582.41
2022-09-17T12:07:57.868Z,99559.06
2022-09-17T12:10:37.808Z,99553.94
2022-09-17T12:13:17.761Z,99562.25
2022-09-17T12:15:53.159Z,99561.34
2022-09-17T12:18:34.047Z,99543.56
2022-09-17T12:21:06.357Z,99553.81
2022-09-17T12:23:40.412Z,99532.25
2022-09-17T12:26:22.414Z,99543.75
2022-09-17T12:29:00.955Z,99534.22
2022-09-17T12:31:38.030Z,99555.50
2022-09-17T12:34:21.958Z,99544.78
2022-09-17T12:36:59.553Z,99548.63
2022-09-17T12:39:46.163Z,99523.88
2022-09-17T12:42:28.052Z,99546.28
2022-09-17T12:45:10.229Z,99552.09
2022-09-17T12:47:56.588Z,99544.34
2022-09-17T12:50:36.505Z,99546.28
2022-09-17T12:53:17.296Z,99545.81
2022-09-17T12:55:59.544Z,99530.78
2022-09-17T12:58:43.922Z,99531.16
2022-09-17T13:01:23.419Z,99541.66
2022-09-17T13:03:58.582Z,99528.03
2022-09-17T13:07:07.507Z,99533.28
2022-09-17T13:10:03.020Z,99521.63
2022-09-17T13:12:42.526Z,99519.13
2022-09-17T13:15:52.434Z,99516.97
2022-09-17T13:18:30.926Z,99510.66
2022-09-17T13:21:08.606Z,99491.84
2022-09-17T13:23:41.768Z,99497.16
2022-09-17T13:26:12.039Z,99498.72
2022-09-17T13:29:00.336Z,99501.38
2022-09-17T13:31:51.027Z,99501.53
2022-09-17T13:34:32.411Z,99493.47
2022-09-17T13:37:02.422Z,99492.81
2022-09-17T13:39:44.351Z,99470.59
2022-09-17T13:42:22.103Z,99484.03
2022-09-17T13:45:03.592Z,99480.34
2022-09-17T13:47:33.621Z,99485.25
2022-09-17T13:50:08.095Z,99478.56
2022-09-17T13:52:41.307Z,99477.00
2022-09-17T13:55:31.026Z,99467.38
2022-09-17T13:57:59.773Z,99460.28
2022-09-17T14:00:51.848Z,99466.94
2022-09-17T14:03:49.417Z,99463.44
2022-09-17T14:06:53.870Z,99459.84
2022-09-17T14:09:53.748Z,99452.81
2022-09-17T14:12:52.582Z,99440.66
2022-09-17T14:16:02.308Z,99445.34
2022-09-17T14:18:44.741Z,99445.19
2022-09-17T14:21:20.385Z,99434.78
2022-09-17T14:23:56.578Z,99436.84
2022-09-17T14:26:55.421Z,99434.38
2022-09-17T14:30:02.052Z,99422.28
2022-09-17T14:32:34.322Z,99424.47
2022-09-17T14:35:19.227Z,99420.94
2022-09-17T14:37:56.355Z,99430.66
2022-09-17T14:40:28.378Z,99419.06
2022-09-17T14:42:58.750Z,99413.56
2022-09-17T14:45:30.952Z,99413.72
2022-09-17T14:48:31.510Z,99411.81
2022-09-17T14:51:33.032Z,99409.34
2022-09-17T14:54:17.195Z,99401.00
2022-09-17T14:57:02.681Z,99389.69
2022-09-17T14:59:43.049Z,99405.03
2022-09-17T15:02:30.433Z,99399.50
2022-09-17T15:04:59.288Z,99391.84
2022-09-17T15:07:28.317Z,99403.59
2022-09-17T15:10:08.195Z,99386.69
2022-09-17T15:12:42.603Z,99380.94
2022-09-17T15:15:19.539Z,99379.44
2022-09-17T15:17:49.926Z,99385.38
2022-09-17T15:20:22.148Z,99388.84
2022-09-17T15:22:57.906Z,99370.13
2022-09-17T15:25:30.859Z,99380.22
2022-09-17T15:28:06.337Z,99375.44
2022-09-17T15:30:34.864Z,99373.75
2022-09-17T15:33:03.530Z,99373.44
2022-09-17T15:35:33.513Z,99372.03
2022-09-17T15:38:22.161Z,99379.59
2022-09-17T15:40:52.072Z,99381.50
2022-09-17T15:43:27.646Z,99376.38
2022-09-17T15:45:58.233Z,99378.75
2022-09-17T15:48:37.839Z,99366.31
2022-09-17T15:51:14.814Z,99374.28
2022-09-17T15:53:53.382Z,99368.63
2022-09-17T15:56:24.842Z,99357.81
2022-09-17T15:58:57.728Z,99370.19
2022-09-17T16:01:55.971Z,99350.91
2022-09-17T16:04:33.200Z,99367.44
2022-09-17T16:07:28.076Z,99362.25
2022-09-17T16:09:59.417Z,99348.00
2022-09-17T16:12:30.066Z,99368.63
2022-09-17T16:15:01.721Z,99374.16
2022-09-17T16:17:36.790Z,99354.50
2022-09-17T16:20:11.272Z,99364.44
2022-09-17T16:22:40.297Z,99364.84
2022-09-17T16:25:09.704Z,99357.94
2022-09-17T16:27:46.790Z,99351.44
2022-09-17T16:30:19.249Z,99352.75
2022-09-17T16:32:48.268Z,99345.00
2022-09-17T16:35:18.982Z,99350.97
2022-09-17T16:37:50.477Z,99347.28
2022-09-17T16:40:19.460Z,99352.50
2022-09-17T16:42:48.387Z,99354.69
2022-09-17T16:45:18.405Z,99343.91
2022-09-17T16:47:46.832Z,99343.50
2022-09-17T16:50:17.327Z,99342.38
2022-09-17T16:52:46.138Z,99334.25
2022-09-17T16:55:16.518Z,99346.03
2022-09-17T16:57:45.230Z,99351.44
2022-09-17T17:00:17.170Z,99347.81
2022-09-17T17:02:53.711Z,99346.19
2022-09-17T17:05:22.370Z,99345.34
2022-09-17T17:07:51.081Z,99336.59
2022-09-17T17:10:20.407Z,99334.22
2022-09-17T17:12:49.061Z,99340.31
2022-09-17T17:15:17.522Z,99343.97
2022-09-17T17:17:47.358Z,99334.22
2022-09-17T17:20:16.980Z,99341.06
2022-09-17T17:22:46.119Z,99347.31
2022-09-17T17:25:16.069Z,99342.41
2022-09-17T17:27:45.515Z,99328.72
2022-09-17T17:30:17.512Z,99339.13
2022-09-17T17:32:51.477Z,99342.13
2022-09-17T17:35:20.302Z,99336.19
2022-09-17T17:37:48.859Z,99342.72
2022-09-17T17:40:17.777Z,99333.69
2022-09-17T17:42:47.598Z,99343.56
2022-09-17T17:45:16.327Z,99344.94
2022-09-17T17:47:44.930Z,99345.97
2022-09-17T17:50:16.010Z,99347.97
2022-09-17T17:52:48.277Z,99344.66
2022-09-17T17:55:17.390Z,99346.22
2022-09-17T17:57:45.809Z,99321.63
2022-09-17T18:00:16.681Z,99337.22
2022-09-17T18:02:45.273Z,99330.28
2022-09-17T18:05:15.272Z,99346.31
2022-09-17T18:07:43.984Z,99341.72
2022-09-17T18:10:13.226Z,99341.75
2022-09-17T18:12:50.154Z,99340.75
2022-09-17T18:15:18.761Z,99342.38
2022-09-17T18:17:50.129Z,99336.69
2022-09-17T18:20:22.798Z,99334.72
2022-09-17T18:22:51.288Z,99324.75
2022-09-17T18:25:19.913Z,99324.59
2022-09-17T18:27:48.512Z,99336.84
2022-09-17T18:30:17.381Z,99329.31
2022-09-17T18:32:49.103Z,99329.06
2022-09-17T18:35:20.149Z,99331.25
2022-09-17T18:37:50.015Z,99336.94
2022-09-17T18:40:18.614Z,99335.25
2022-09-17T18:42:49.920Z,99337.28
2022-09-17T18:45:18.518Z,99336.47
2022-09-17T18:47:46.949Z,99344.44
2022-09-17T18:50:15.773Z,99342.25
2022-09-17T18:52:44.234Z,99343.53
2022-09-17T18:55:14.112Z,99349.16
2022-09-17T18:57:42.940Z,99347.19
2022-09-17T19:00:12.403Z,99353.13
2022-09-17T19:02:40.834Z,99358.28
2022-09-17T19:05:09.959Z,99354.75
2022-09-17T19:07:38.442Z,99356.69
2022-09-17T19:10:07.666Z,99367.47
2022-09-17T19:12:38.188Z,99365.59
2022-09-17T19:15:09.816Z,99362.09
2022-09-17T19:17:38.382Z,99367.31
2022-09-17T19:20:07.749Z,99363.56
2022-09-17T19:22:36.237Z,99375.00
2022-09-17T19:25:05.177Z,99377.81
2022-09-17T19:27:33.672Z,99380.66
2022-09-17T19:30:03.566Z,99389.16
2022-09-17T19:32:33.073Z,99385.44
2022-09-17T19:35:01.636Z,99399.50
2022-09-17T19:37:30.141Z,99387.63
2022-09-17T19:39:58.753Z,99384.38
2022-09-17T19:42:27.297Z,99398.44
2022-09-17T19:44:55.778Z,99403.41
2022-09-17T19:47:25.796Z,99401.47
2022-09-17T19:49:54.370Z,99403.25
2022-09-17T19:52:23.025Z,99408.16
2022-09-17T19:54:51.621Z,99412.94
2022-09-17T19:57:20.665Z,99410.19
2022-09-17T19:59:49.203Z,99411.47
2022-09-17T20:02:18.223Z,99417.63
2022-09-17T20:04:48.175Z,99413.31
2022-09-17T20:07:16.678Z,99429.00
2022-09-17T20:09:46.205Z,99410.56
2022-09-17T20:12:14.686Z,99426.59
2022-09-17T20:14:43.365Z,99427.09
2022-09-17T20:17:13.348Z,99424.78
2022-09-17T20:19:42.161Z,99427.69
2022-09-17T20:22:12.046Z,99431.22
2022-09-17T20:24:40.881Z,99426.44
2022-09-17T20:27:09.379Z,99437.34
2022-09-17T20:29:37.885Z,99431.56
2022-09-17T20:32:06.586Z,99443.25
2022-09-17T20:34:35.088Z,99432.75
2022-09-17T20:37:13.017Z,99442.28
2022-09-17T20:39:43.938Z,99443.13
2022-09-17T20:42:12.449Z,99438.09
2022-09-17T20:44:40.958Z,99459.47
2022-09-17T20:47:09.548Z,99452.34
2022-09-17T20:49:38.062Z,99463.03
2022-09-17T20:52:07.053Z,99452.94
2022-09-17T20:54:35.671Z,99457.25
2022-09-17T20:57:05.598Z,99463.03
2022-09-17T20:59:51.008Z,99451.09
2022-09-17T21:02:21.177Z,99466.53
2022-09-17T21:04:51.453Z,99464.72
2022-09-17T21:07:19.949Z,99468.19
2022-09-17T21:09:48.500Z,99466.72
2022-09-17T21:12:18.474Z,99470.91
2022-09-17T21:14:47.017Z,99469.88
2022-09-17T21:17:15.797Z,99464.31
2022-09-17T21:19:44.307Z,99466.78
2022-09-17T21:22:12.825Z,99469.03
2022-09-17T21:24:41.319Z,99472.13
2022-09-17T21:27:10.084Z,99471.72
2022-09-17T21:29:39.992Z,99457.97
2022-09-17T21:32:08.501Z,99474.56
2022-09-17T21:34:37.117Z,99475.75
2022-09-17T21:37:05.721Z,99471.53
2022-09-17T21:39:37.210Z,99473.97
2022-09-17T21:42:05.877Z,99479.78
2022-09-17T21:44:34.388Z,99481.88
2022-09-17T21:47:05.436Z,99484.38
2022-09-17T21:49:36.500Z,99484.31
2022-09-17T21:52:05.017Z,99480.84
2022-09-17T21:54:33.694Z,99481.47
2022-09-17T21:57:02.163Z,99480.97
2022-09-17T21:59:30.764Z,99487.19
2022-09-17T22:01:59.371Z,99486.13
2022-09-17T22:04:29.295Z,99473.25
2022-09-17T22:06:58.063Z,99482.41
2022-09-17T22:09:27.617Z,99486.63
2022-09-17T22:11:56.109Z,99489.72
2022-09-17T22:14:26.058Z,99493.03
2022-09-17T22:16:57.259Z,99483.63
2022-09-17T22:19:26.584Z,99481.34
2022-09-17T22:21:57.429Z,99492.78
2022-09-17T22:24:26.807Z,99489.06
2022-09-17T22:26:58.164Z,99490.19
2022-09-17T22:29:28.604Z,99478.41
2022-09-17T22:31:57.438Z,99489.75
2022-09-17T22:34:26.847Z,99483.41
2022-09-17T22:36:56.857Z,99495.47
2022-09-17T22:39:25.329Z,99498.44
2022-09-17T22:41:54.819Z,99492.44
2022-09-17T22:44:23.740Z,99499.59
2022-09-17T22:46:53.081Z,99494.44
2022-09-17T22:49:21.804Z,99496.81
2022-09-17T22:51:50.309Z,99492.72
2022-09-17T22:54:20.294Z,99489.50
2022-09-17T22:56:49.772Z,99490.50
2022-09-17T22:59:19.310Z,99476.84
2022-09-17T23:01:47.924Z,99493.03
2022-09-17T23:04:16.529Z,99499.31
2022-09-17T23:06:45.019Z,99496.47
2022-09-17T23:09:14.609Z,99495.66
2022-09-17T23:11:47.108Z,99487.63
2022-09-17T23:14:17.775Z,99490.38
2022-09-17T23:16:48.694Z,99479.06
2022-09-17T23:19:18.076Z,99479.19
2022-09-17T23:21:46.960Z,99477.94
2022-09-17T23:24:20.418Z,99487.63
2022-09-17T23:26:51.270Z,99486.22
2022-09-17T23:29:20.092Z,99481.63
2022-09-17T23:31:48.592Z,99484.56
2022-09-17T23:34:17.086Z,99494.38
2022-09-17T23:36:45.568Z,99482.13
2022-09-17T23:39:14.140Z,99489.00
2022-09-17T23:41:45.672Z,99494.66
2022-09-17T23:44:16.487Z,99497.03
2022-09-17T23:46:46.149Z,99485.28
2022-09-17T23:49:16.188Z,99489.44
2022-09-17T23:51:44.847Z,99490.94
2022-09-17T23:54:13.465Z,99485.75
2022-09-17T23:56:42.010Z,99476.97
2022-09-17T23:59:11.631Z,99472.72
